createdAt,value
2023-03-21T00:00:34.960Z,100020.78
2023-03-21T00:03:01.584Z,100026.06
2023-03-21T00:05:28.420Z,100014.72
2023-03-21T00:07:55.133Z,100014.69
2023-03-21T00:10:37.149Z,100015.59
2023-03-21T00:13:06.498Z,100008.56
2023-03-21T00:15:42.562Z,100005.97
2023-03-21T00:18:15.917Z,100009.47
2023-03-21T00:20:47.484Z,99998.09
2023-03-21T00:23:13.971Z,99998.06
2023-03-21T00:25:40.497Z,99998.94
2023-03-21T00:28:08.628Z,99995.44
2023-03-21T00:30:35.595Z,99995.44
2023-03-21T00:33:12.072Z,99994.53
2023-03-21T00:36:01.848Z,99995.41
2023-03-21T00:38:32.804Z,99993.69
2023-03-21T00:41:04.676Z,99987.50
2023-03-21T00:43:34.372Z,99986.66
2023-03-21T00:46:01.318Z,99982.25
2023-03-21T00:48:28.360Z,99990.97
2023-03-21T00:50:57.302Z,99988.34
2023-03-21T00:53:24.326Z,99983.13
2023-03-21T00:55:51.026Z,99983.13
2023-03-21T00:58:17.790Z,99991.88
2023-03-21T01:00:47.060Z,99992.78
2023-03-21T01:03:24.282Z,99999.78
2023-03-21T01:06:05.093Z,100005.88
2023-03-21T01:08:48.568Z,100011.13
2023-03-21T01:11:18.900Z,100003.22
2023-03-21T01:13:53.695Z,99997.09
2023-03-21T01:16:24.707Z,99997.03
2023-03-21T01:18:51.494Z,99986.50
2023-03-21T01:21:18.494Z,99988.25
2023-03-21T01:23:45.726Z,99982.13
2023-03-21T01:26:13.594Z,99996.94
2023-03-21T01:28:42.831Z,99991.66
2023-03-21T01:31:12.619Z,99980.28
2023-03-21T01:33:39.600Z,99979.38
2023-03-21T01:36:13.012Z,99979.34
2023-03-21T01:38:41.175Z,99974.03
2023-03-21T01:41:18.755Z,99972.31
2023-03-21T01:43:46.197Z,99963.50
2023-03-21T01:46:49.353Z,99957.31
2023-03-21T01:49:36.072Z,99955.56
2023-03-21T01:52:15.198Z,99956.41
2023-03-21T01:54:44.884Z,99957.31
2023-03-21T01:57:17.978Z,99962.53
2023-03-21T01:59:50.155Z,99966.88
2023-03-21T02:02:23.307Z,99968.59
2023-03-21T02:04:51.379Z,99972.97
2023-03-21T02:07:37.890Z,99978.16
2023-03-21T02:10:13.894Z,99980.75
2023-03-21T02:12:40.506Z,99981.56
2023-03-21T02:15:09.042Z,99994.63
2023-03-21T02:17:43.516Z,99990.22
2023-03-21T02:20:52.309Z,99988.47
2023-03-21T02:23:37.668Z,99989.31
2023-03-21T02:26:41.964Z,99989.31
2023-03-21T02:29:33.748Z,99997.16
2023-03-21T02:32:25.208Z,99991.94
2023-03-21T02:35:23.328Z,99995.41
2023-03-21T02:38:00.602Z,100001.53
2023-03-21T02:40:39.950Z,99998.03
2023-03-21T02:43:23.039Z,99997.16
2023-03-21T02:46:12.191Z,99997.19
2023-03-21T02:48:50.948Z,99995.47
2023-03-21T02:51:22.146Z,99998.97
2023-03-21T02:54:19.983Z,100001.56
2023-03-21T02:56:41.539Z,99995.50
2023-03-21T02:59:09.532Z,99998.97
2023-03-21T03:01:36.228Z,99986.75
2023-03-21T03:04:02.966Z,99984.16
2023-03-21T03:06:38.374Z,99987.63
2023-03-21T03:09:19.779Z,99988.47
2023-03-21T03:11:51.153Z,99987.63
2023-03-21T03:14:44.338Z,99986.75
2023-03-21T03:17:28.584Z,99987.63
2023-03-21T03:20:17.591Z,99991.09
2023-03-21T03:22:51.594Z,99989.31
2023-03-21T03:25:39.490Z,99997.19
2023-03-21T03:28:10.134Z,99998.94
2023-03-21T03:30:46.564Z,100005.03
2023-03-21T03:33:23.578Z,99998.91
2023-03-21T03:36:04.461Z,99992.78
2023-03-21T03:38:35.776Z,100000.66
2023-03-21T03:41:09.298Z,99999.81
2023-03-21T03:43:48.830Z,99991.94
2023-03-21T03:46:39.943Z,99991.94
2023-03-21T03:49:17.184Z,100005.03
2023-03-21T03:51:55.959Z,100002.38
2023-03-21T03:54:42.500Z,100000.66
2023-03-21T03:57:11.965Z,100001.56
2023-03-21T03:59:41.577Z,99998.06
2023-03-21T04:02:08.556Z,100008.53
2023-03-21T04:04:36.912Z,99999.75
2023-03-21T04:07:04.086Z,100008.56
2023-03-21T04:09:43.105Z,100005.91
2023-03-21T04:12:10.586Z,100007.66
2023-03-21T04:14:44.512Z,100009.41
2023-03-21T04:17:12.629Z,100009.44
2023-03-21T04:19:39.226Z,100012.88
2023-03-21T04:22:06.027Z,100011.13
2023-03-21T04:24:33.941Z,100011.16
2023-03-21T04:27:00.794Z,100011.16
2023-03-21T04:29:29.842Z,100012.03
2023-03-21T04:31:56.940Z,100013.72
2023-03-21T04:34:28.321Z,100012.88
2023-03-21T04:36:55.435Z,100012.88
2023-03-21T04:39:22.182Z,100015.50
2023-03-21T04:41:48.920Z,100018.97
2023-03-21T04:44:17.082Z,100014.59
2023-03-21T04:46:43.941Z,100025.06
2023-03-21T04:49:10.680Z,100020.69
2023-03-21T04:51:37.372Z,100017.19
2023-03-21T04:54:04.083Z,100018.91
2023-03-21T04:56:34.278Z,100018.91
2023-03-21T04:59:06.060Z,100025.03
2023-03-21T05:01:32.985Z,100013.69
2023-03-21T05:04:01.456Z,100010.19
2023-03-21T05:06:29.170Z,100024.19
2023-03-21T05:09:00.135Z,100018.06
2023-03-21T05:11:28.399Z,100018.06
2023-03-21T05:13:54.870Z,100013.69
2023-03-21T05:16:25.535Z,100018.94
2023-03-21T05:18:55.636Z,100018.06
2023-03-21T05:21:23.331Z,100019.81
2023-03-21T05:23:54.702Z,100025.97
2023-03-21T05:26:24.750Z,100027.72
2023-03-21T05:28:51.609Z,100031.19
2023-03-21T05:31:19.166Z,100032.97
2023-03-21T05:33:46.702Z,100029.47
2023-03-21T05:36:14.193Z,100032.97
2023-03-21T05:38:45.761Z,100029.47
2023-03-21T05:41:14.186Z,100028.66
2023-03-21T05:43:40.670Z,100033.94
2023-03-21T05:46:07.839Z,100044.41
2023-03-21T05:48:35.006Z,100036.63
2023-03-21T05:51:03.291Z,100043.66
2023-03-21T05:53:30.813Z,100048.06
2023-03-21T05:55:57.641Z,100039.34
2023-03-21T05:58:24.189Z,100048.06
2023-03-21T06:00:50.646Z,100045.53
2023-03-21T06:03:17.245Z,100052.53
2023-03-21T06:05:43.733Z,100049.09
2023-03-21T06:08:10.243Z,100047.38
2023-03-21T06:10:36.816Z,100048.25
2023-03-21T06:13:03.534Z,100045.63
2023-03-21T06:15:30.492Z,100047.38
2023-03-21T06:17:57.054Z,100050.00
2023-03-21T06:20:23.633Z,100057.03
2023-03-21T06:22:50.158Z,100050.91
2023-03-21T06:25:16.836Z,100060.59
2023-03-21T06:27:43.462Z,100056.22
2023-03-21T06:30:10.771Z,100065.91
2023-03-21T06:32:37.260Z,100054.53
2023-03-21T06:35:03.892Z,100060.69
2023-03-21T06:37:30.384Z,100065.13
2023-03-21T06:39:57.027Z,100066.84
2023-03-21T06:42:23.577Z,100056.34
2023-03-21T06:44:50.345Z,100063.38
2023-03-21T06:47:16.926Z,100064.28
2023-03-21T06:49:43.964Z,100065.22
2023-03-21T06:52:11.475Z,100067.00
2023-03-21T06:54:38.258Z,100071.44
2023-03-21T06:57:04.792Z,100074.06
2023-03-21T06:59:31.320Z,100080.97
2023-03-21T07:01:57.796Z,100083.59
2023-03-21T07:04:24.356Z,100088.84
2023-03-21T07:06:50.823Z,100093.25
2023-03-21T07:09:18.267Z,100091.56
2023-03-21T07:11:44.808Z,100084.59
2023-03-21T07:14:11.609Z,100089.88
2023-03-21T07:16:38.148Z,100090.78
2023-03-21T07:19:04.704Z,100088.19
2023-03-21T07:21:31.360Z,100096.03
2023-03-21T07:23:57.829Z,100094.34
2023-03-21T07:26:24.405Z,100094.34
2023-03-21T07:28:51.053Z,100096.13
2023-03-21T07:31:17.892Z,100098.75
2023-03-21T07:33:44.444Z,100105.69
2023-03-21T07:36:15.991Z,100098.66
2023-03-21T07:38:44.326Z,100099.59
2023-03-21T07:41:11.090Z,100108.41
2023-03-21T07:43:39.192Z,100103.25
2023-03-21T07:46:06.368Z,100098.03
2023-03-21T07:48:34.069Z,100106.78
2023-03-21T07:51:02.390Z,100100.69
2023-03-21T07:53:28.971Z,100103.38
2023-03-21T07:55:56.857Z,100109.53
2023-03-21T07:58:25.055Z,100108.69
2023-03-21T08:00:52.996Z,100113.13
2023-03-21T08:03:20.026Z,100108.72
2023-03-21T08:05:46.905Z,100108.81
2023-03-21T08:08:13.479Z,100109.78
2023-03-21T08:10:42.935Z,100116.75
2023-03-21T08:13:09.405Z,100114.97
2023-03-21T08:15:36.113Z,100111.44
2023-03-21T08:18:02.697Z,100121.00
2023-03-21T08:20:29.290Z,100118.47
2023-03-21T08:22:55.868Z,100117.66
2023-03-21T08:25:23.071Z,100120.28
2023-03-21T08:27:51.500Z,100120.34
2023-03-21T08:30:21.692Z,100118.56
2023-03-21T08:32:48.830Z,100137.84
2023-03-21T08:35:17.657Z,100140.44
2023-03-21T08:37:44.626Z,100139.59
2023-03-21T08:40:13.976Z,100140.44
2023-03-21T08:42:41.760Z,100134.13
2023-03-21T08:45:11.301Z,100146.41
2023-03-21T08:47:38.513Z,100146.41
2023-03-21T08:50:07.803Z,100141.13
2023-03-21T08:52:34.825Z,100140.34
2023-03-21T08:55:02.381Z,100135.97
2023-03-21T08:57:29.861Z,100153.59
2023-03-21T08:59:56.531Z,100140.47
2023-03-21T09:02:23.125Z,100151.88
2023-03-21T09:04:49.873Z,100151.91
2023-03-21T09:07:18.135Z,100150.25
2023-03-21T09:09:47.609Z,100157.28
2023-03-21T09:12:17.250Z,100156.41
2023-03-21T09:14:43.809Z,100161.63
2023-03-21T09:17:10.620Z,100164.22
2023-03-21T09:19:38.995Z,100153.66
2023-03-21T09:22:06.059Z,100153.59
2023-03-21T09:24:32.562Z,100159.69
2023-03-21T09:26:59.642Z,100166.56
2023-03-21T09:29:26.604Z,100159.25
2023-03-21T09:31:54.615Z,100159.75
2023-03-21T09:34:21.327Z,100154.63
2023-03-21T09:36:48.629Z,100162.69
2023-03-21T09:39:16.293Z,100160.84
2023-03-21T09:42:06.553Z,100157.00
2023-03-21T09:44:54.992Z,100159.91
2023-03-21T09:47:29.400Z,100165.19
2023-03-21T09:50:12.879Z,100157.50
2023-03-21T09:52:50.793Z,100162.66
2023-03-21T09:55:26.409Z,100162.03
2023-03-21T09:58:05.084Z,100165.53
2023-03-21T10:00:47.056Z,100160.41
2023-03-21T10:03:26.529Z,100153.19
2023-03-21T10:05:58.788Z,100156.28
2023-03-21T10:08:32.154Z,100156.19
2023-03-21T10:11:02.385Z,100153.50
2023-03-21T10:13:33.938Z,100149.75
2023-03-21T10:16:06.648Z,100148.03
2023-03-21T10:18:33.511Z,100150.88
2023-03-21T10:21:01.935Z,100146.13
2023-03-21T10:23:29.798Z,100148.78
2023-03-21T10:26:00.645Z,100154.75
2023-03-21T10:28:34.548Z,100159.38
2023-03-21T10:31:09.123Z,100149.03
2023-03-21T10:33:39.449Z,100152.13
2023-03-21T10:36:08.098Z,100158.09
2023-03-21T10:38:35.766Z,100160.41
2023-03-21T10:41:02.243Z,100153.41
2023-03-21T10:43:30.022Z,100156.88
2023-03-21T10:45:57.166Z,100149.78
2023-03-21T10:48:24.491Z,100142.84
2023-03-21T10:50:55.660Z,100149.03
2023-03-21T10:53:38.242Z,100146.59
2023-03-21T10:56:11.818Z,100141.41
2023-03-21T10:58:46.967Z,100141.56
2023-03-21T11:01:26.143Z,100146.88
2023-03-21T11:03:59.496Z,100150.41
2023-03-21T11:06:31.723Z,100144.44
2023-03-21T11:09:08.372Z,100143.91
2023-03-21T11:11:41.568Z,100146.97
2023-03-21T11:14:25.947Z,100141.78
2023-03-21T11:16:52.569Z,100148.75
2023-03-21T11:19:29.921Z,100140.84
2023-03-21T11:22:06.225Z,100129.06
2023-03-21T11:24:35.381Z,100137.44
2023-03-21T11:27:07.276Z,100144.53
2023-03-21T11:29:41.237Z,100135.72
2023-03-21T11:32:26.236Z,100135.69
2023-03-21T11:35:02.210Z,100135.78
2023-03-21T11:37:39.626Z,100139.94
2023-03-21T11:40:29.037Z,100129.22
2023-03-21T11:43:05.022Z,100125.00
2023-03-21T11:45:33.691Z,100125.16
2023-03-21T11:48:03.573Z,100122.47
2023-03-21T11:50:37.322Z,100128.28
2023-03-21T11:53:27.236Z,100121.16
2023-03-21T11:56:11.814Z,100119.28
2023-03-21T11:58:58.763Z,100120.09
2023-03-21T12:01:54.966Z,100107.34
2023-03-21T12:04:44.751Z,100104.09
2023-03-21T12:07:11.242Z,100110.53
2023-03-21T12:09:45.336Z,100102.22
2023-03-21T12:12:38.937Z,100106.25
2023-03-21T12:15:17.224Z,100101.75
2023-03-21T12:17:54.458Z,100101.03
2023-03-21T12:20:33.588Z,100098.97
2023-03-21T12:23:35.798Z,100098.66
2023-03-21T12:26:25.017Z,100100.28
2023-03-21T12:29:27.182Z,100098.16
2023-03-21T12:32:30.962Z,100088.72
2023-03-21T12:35:09.678Z,100084.59
2023-03-21T12:37:54.218Z,100080.91
2023-03-21T12:40:35.873Z,100078.75
2023-03-21T12:43:31.774Z,100075.34
2023-03-21T12:46:05.877Z,100083.38
2023-03-21T12:48:40.659Z,100071.06
2023-03-21T12:51:12.937Z,100077.19
2023-03-21T12:53:44.640Z,100080.03
2023-03-21T12:56:17.218Z,100069.47
2023-03-21T12:58:52.393Z,100072.69
2023-03-21T13:01:21.550Z,100071.09
2023-03-21T13:04:30.084Z,100065.16
2023-03-21T13:07:02.301Z,100064.97
2023-03-21T13:09:38.028Z,100059.56
2023-03-21T13:12:39.045Z,100058.25
2023-03-21T13:15:24.008Z,100061.13
2023-03-21T13:18:01.672Z,100057.09
2023-03-21T13:20:45.311Z,100048.50
2023-03-21T13:23:13.591Z,100048.91
2023-03-21T13:25:46.925Z,100042.25
2023-03-21T13:28:31.359Z,100038.63
2023-03-21T13:31:17.985Z,100037.97
2023-03-21T13:33:48.710Z,100024.84
2023-03-21T13:36:18.549Z,100022.75
2023-03-21T13:38:51.190Z,100015.38
2023-03-21T13:41:29.888Z,100021.91
2023-03-21T13:44:02.331Z,100022.03
2023-03-21T13:46:28.927Z,100026.97
2023-03-21T13:48:59.693Z,100017.81
2023-03-21T13:51:29.593Z,100025.22
2023-03-21T13:54:02.194Z,100019.22
2023-03-21T13:56:30.533Z,100018.56
2023-03-21T13:59:02.127Z,100022.56
2023-03-21T14:01:36.051Z,100017.06
2023-03-21T14:04:23.974Z,100017.69
2023-03-21T14:06:59.226Z,100027.63
2023-03-21T14:09:32.638Z,100013.88
2023-03-21T14:12:07.555Z,100018.91
2023-03-21T14:14:38.907Z,100010.13
2023-03-21T14:17:35.302Z,100013.69
2023-03-21T14:20:25.676Z,100010.22
2023-03-21T14:22:53.200Z,100010.63
2023-03-21T14:25:23.149Z,100005.75
2023-03-21T14:27:54.146Z,100001.69
2023-03-21T14:30:22.908Z,99994.28
2023-03-21T14:32:49.472Z,99990.44
2023-03-21T14:35:16.402Z,99993.00
2023-03-21T14:40:27.154Z,99989.81
2023-03-21T14:42:54.711Z,99991.47
2023-03-21T14:45:25.733Z,99981.00
2023-03-21T14:47:56.760Z,99986.09
2023-03-21T14:50:31.680Z,99982.25
2023-03-21T14:52:59.194Z,99976.09
2023-03-21T14:55:26.418Z,99975.16
2023-03-21T14:57:56.010Z,99974.63
2023-03-21T15:00:27.410Z,99977.03
2023-03-21T15:02:55.135Z,99972.78
2023-03-21T15:05:38.176Z,99971.13
2023-03-21T15:08:12.658Z,99966.63
2023-03-21T15:10:39.377Z,99968.28
2023-03-21T15:13:25.326Z,99970.94
2023-03-21T15:15:54.918Z,99966.38
2023-03-21T15:18:33.074Z,99966.44
2023-03-21T15:21:05.821Z,99966.84
2023-03-21T15:23:53.791Z,99971.53
2023-03-21T15:26:24.483Z,99963.56
2023-03-21T15:28:57.162Z,99969.66
2023-03-21T15:31:29.873Z,99968.44
2023-03-21T15:33:56.668Z,99965.19
2023-03-21T15:36:44.778Z,99966.91
2023-03-21T15:39:15.811Z,99956.16
2023-03-21T15:41:55.932Z,99963.94
2023-03-21T15:44:22.545Z,99958.66
2023-03-21T15:46:51.470Z,99957.16
2023-03-21T15:49:21.164Z,99949.22
2023-03-21T15:51:52.425Z,99950.97
2023-03-21T15:54:27.213Z,99951.88
2023-03-21T15:57:04.909Z,99948.44
2023-03-21T15:59:36.526Z,99956.47
2023-03-21T16:02:04.452Z,99950.38
2023-03-21T16:04:31.340Z,99942.47
2023-03-21T16:07:02.290Z,99945.97
2023-03-21T16:09:39.287Z,99939.81
2023-03-21T16:12:11.606Z,99947.91
2023-03-21T16:14:38.932Z,99942.63
2023-03-21T16:17:27.780Z,99940.81
2023-03-21T16:19:54.718Z,99954.09
2023-03-21T16:22:22.400Z,99945.34
2023-03-21T16:24:49.242Z,99948.00
2023-03-21T16:27:18.932Z,99957.66
2023-03-21T16:29:45.742Z,99954.22
2023-03-21T16:32:18.046Z,99953.34
2023-03-21T16:34:44.830Z,99953.38
2023-03-21T16:37:12.047Z,99956.00
2023-03-21T16:39:42.934Z,99964.81
2023-03-21T16:42:11.722Z,99956.97
2023-03-21T16:44:39.561Z,99960.53
2023-03-21T16:47:17.963Z,99958.81
2023-03-21T16:49:44.964Z,99957.06
2023-03-21T16:52:12.873Z,99957.06
2023-03-21T16:54:40.442Z,99955.38
2023-03-21T16:57:16.747Z,99963.28
2023-03-21T16:59:43.975Z,99952.75
2023-03-21T17:02:16.641Z,99950.13
2023-03-21T17:04:44.614Z,99948.41
2023-03-21T17:07:16.332Z,99957.19
2023-03-21T17:09:48.028Z,99959.84
2023-03-21T17:12:16.343Z,99958.06
2023-03-21T17:14:44.580Z,99953.69
2023-03-21T17:17:13.726Z,99947.56
2023-03-21T17:19:43.420Z,99952.81
2023-03-21T17:22:12.493Z,99951.97
2023-03-21T17:24:39.923Z,99945.81
2023-03-21T17:27:08.570Z,99941.44
2023-03-21T17:29:35.168Z,99948.47
2023-03-21T17:32:01.663Z,99945.00
2023-03-21T17:34:28.174Z,99950.25
2023-03-21T17:36:54.791Z,99950.25
2023-03-21T17:39:24.198Z,99952.00
2023-03-21T17:41:52.192Z,99959.03
2023-03-21T17:44:19.961Z,99957.25
2023-03-21T17:46:49.015Z,99952.03
2023-03-21T17:49:16.835Z,99951.13
2023-03-21T17:51:43.763Z,99956.41
2023-03-21T17:54:10.440Z,99952.88
2023-03-21T17:56:41.833Z,99957.28
2023-03-21T17:59:12.660Z,99959.03
2023-03-21T18:01:39.251Z,99952.00
2023-03-21T18:04:06.228Z,99957.28
2023-03-21T18:06:34.935Z,99953.78
2023-03-21T18:09:07.024Z,99964.31
2023-03-21T18:11:33.965Z,99962.53
2023-03-21T18:14:14.952Z,99963.44
2023-03-21T18:16:42.827Z,99964.31
2023-03-21T18:19:12.777Z,99963.44
2023-03-21T18:21:45.470Z,99958.16
2023-03-21T18:24:12.697Z,99958.16
2023-03-21T18:26:39.244Z,99962.53
2023-03-21T18:32:05.575Z,99966.91
2023-03-21T18:34:34.370Z,99966.06
2023-03-21T18:37:03.896Z,99958.16
2023-03-21T18:39:31.629Z,99950.28
2023-03-21T18:42:02.528Z,99964.31
2023-03-21T18:44:30.496Z,99965.19
2023-03-21T18:46:57.807Z,99960.78
2023-03-21T18:50:06.013Z,99956.41
2023-03-21T18:52:12.311Z,99963.44
2023-03-21T18:54:39.234Z,99961.69
2023-03-21T18:57:34.559Z,99959.06
2023-03-21T18:59:53.262Z,99962.56
2023-03-21T19:02:19.827Z,99961.66
2023-03-21T19:04:46.590Z,99953.78
2023-03-21T19:07:13.304Z,99945.91
2023-03-21T19:10:01.465Z,99956.41
2023-03-21T19:12:27.852Z,99945.03
2023-03-21T19:14:55.029Z,99954.66
2023-03-21T19:20:09.935Z,99952.03
2023-03-21T19:22:36.822Z,99953.81
2023-03-21T19:25:05.569Z,99952.03
2023-03-21T19:27:34.680Z,99952.91
2023-03-21T19:30:13.454Z,99948.50
2023-03-21T19:32:40.973Z,99944.13
2023-03-21T19:35:07.814Z,99948.53
2023-03-21T19:37:36.323Z,99938.88
2023-03-21T19:40:06.516Z,99942.41
2023-03-21T19:42:36.267Z,99942.38
2023-03-21T19:45:04.856Z,99938.00
2023-03-21T19:47:31.566Z,99938.03
2023-03-21T19:52:44.655Z,99938.00
2023-03-21T19:57:43.003Z,99930.13
2023-03-21T20:00:11.594Z,99931.00
2023-03-21T20:02:38.384Z,99927.47
2023-03-21T20:05:06.830Z,99929.25
2023-03-21T20:07:33.456Z,99924.84
2023-03-21T20:10:00.207Z,99922.25
2023-03-21T20:12:27.597Z,99918.72
2023-03-21T20:15:06.934Z,99911.72
2023-03-21T20:17:38.981Z,99914.34
2023-03-21T20:20:10.402Z,99910.81
2023-03-21T20:23:05.342Z,99908.22
2023-03-21T20:25:24.047Z,99903.78
2023-03-21T20:28:07.305Z,99913.41
2023-03-21T20:30:37.275Z,99909.00
2023-03-21T20:33:04.359Z,99910.78
2023-03-21T20:36:17.828Z,99917.78
2023-03-21T20:38:20.561Z,99913.41
2023-03-21T20:40:48.091Z,99912.50
2023-03-21T20:44:06.683Z,99900.22
2023-03-21T20:46:02.955Z,99898.47
2023-03-21T20:48:29.875Z,99904.59
2023-03-21T20:51:44.987Z,99902.81
2023-03-21T20:53:54.010Z,99907.22
2023-03-21T20:56:20.779Z,99909.84
2023-03-21T20:59:16.320Z,99898.44
2023-03-21T21:01:33.815Z,99896.69
2023-03-21T21:04:00.640Z,99894.94
2023-03-21T21:06:28.702Z,99899.31
2023-03-21T21:08:55.929Z,99898.44
2023-03-21T21:14:09.382Z,99884.44
2023-03-21T21:16:37.189Z,99888.81
2023-03-21T21:19:03.702Z,99883.53
2023-03-21T21:21:31.684Z,99885.31
2023-03-21T21:23:58.419Z,99885.31
2023-03-21T21:26:25.019Z,99883.53
2023-03-21T21:28:53.231Z,99889.66
2023-03-21T21:31:20.515Z,99885.31
2023-03-21T21:33:50.107Z,99885.28
2023-03-21T21:36:16.963Z,99881.78
2023-03-21T21:38:43.589Z,99880.03
2023-03-21T21:41:19.436Z,99887.94
2023-03-21T21:43:46.931Z,99888.81
2023-03-21T21:46:14.933Z,99891.44
2023-03-21T21:48:41.868Z,99887.03
2023-03-21T21:51:09.372Z,99887.91
2023-03-21T21:53:36.626Z,99887.03
2023-03-21T21:56:06.339Z,99881.78
2023-03-21T21:58:34.026Z,99883.56
2023-03-21T22:01:01.893Z,99880.03
2023-03-21T22:03:41.064Z,99882.66
2023-03-21T22:06:09.425Z,99878.28
2023-03-21T22:08:36.196Z,99887.03
2023-03-21T22:11:03.931Z,99880.91
2023-03-21T22:13:30.689Z,99874.78
2023-03-21T22:15:57.487Z,99870.41
2023-03-21T22:18:24.001Z,99875.63
2023-03-21T22:20:50.570Z,99863.41
2023-03-21T22:23:19.448Z,99866.91
2023-03-21T22:25:51.488Z,99870.38
2023-03-21T22:28:18.114Z,99865.13
2023-03-21T22:30:44.605Z,99860.75
2023-03-21T22:33:11.180Z,99857.25
2023-03-21T22:35:37.753Z,99864.25
2023-03-21T22:38:04.333Z,99860.72
2023-03-21T22:40:31.012Z,99855.47
2023-03-21T22:42:57.498Z,99866.84
2023-03-21T22:45:24.008Z,99865.09
2023-03-21T22:47:50.637Z,99864.19
2023-03-21T22:50:17.212Z,99854.59
2023-03-21T22:52:43.664Z,99856.34
2023-03-21T22:55:12.647Z,99850.22
2023-03-21T22:57:39.200Z,99851.97
2023-03-21T23:00:13.351Z,99851.97
2023-03-21T23:02:40.953Z,99850.25
2023-03-21T23:05:08.716Z,99853.72
2023-03-21T23:07:35.447Z,99844.09
2023-03-21T23:10:01.931Z,99843.22
2023-03-21T23:12:29.138Z,99846.75
2023-03-21T23:14:55.632Z,99845.00
2023-03-21T23:17:22.107Z,99845.00
2023-03-21T23:19:48.623Z,99843.22
2023-03-21T23:22:15.165Z,99843.22
2023-03-21T23:24:41.773Z,99837.13
2023-03-21T23:27:08.282Z,99839.75
2023-03-21T23:29:34.838Z,99841.47
2023-03-21T23:32:01.348Z,99845.84
2023-03-21T23:34:28.107Z,99849.34
2023-03-21T23:36:54.724Z,99844.97
2023-03-21T23:39:21.264Z,99842.38
2023-03-21T23:41:47.876Z,99840.59
2023-03-21T23:44:15.338Z,99849.34
2023-03-21T23:46:41.894Z,99839.72
2023-03-21T23:49:09.849Z,99839.72
2023-03-21T23:51:36.339Z,99841.44
2023-03-21T23:54:02.859Z,99841.44
2023-03-21T23:56:29.391Z,99832.69
2023-03-21T23:58:57.340Z,99831.81
